createdAt,value
2023-05-15T00:02:04.449Z,4.40
2023-05-15T00:04:31.937Z,4.20
2023-05-15T00:06:59.461Z,4.60
2023-05-15T00:09:26.791Z,4.13
2023-05-15T00:11:54.214Z,4.67
2023-05-15T00:14:21.540Z,4.57
2023-05-15T00:16:48.939Z,4.17
2023-05-15T00:19:16.646Z,4.87
2023-05-15T00:21:44.131Z,5.07
2023-05-15T00:24:11.445Z,4.47
2023-05-15T00:26:38.824Z,4.30
2023-05-15T00:29:06.322Z,4.90
2023-05-15T00:31:33.696Z,4.53
2023-05-15T00:34:01.206Z,4.47
2023-05-15T00:36:30.095Z,4.47
2023-05-15T00:38:57.642Z,4.13
2023-05-15T00:41:26.169Z,4.60
2023-05-15T00:43:53.935Z,4.20
2023-05-15T00:46:22.102Z,4.73
2023-05-15T00:48:51.257Z,5.07
2023-05-15T00:51:18.671Z,4.13
2023-05-15T00:53:46.173Z,4.27
2023-05-15T00:56:13.730Z,4.10
2023-05-15T00:58:42.602Z,3.70
2023-05-15T01:01:10.335Z,4.00
2023-05-15T01:03:37.911Z,4.43
2023-05-15T01:06:05.795Z,4.67
2023-05-15T01:08:36.045Z,3.87
2023-05-15T01:11:04.865Z,3.87
2023-05-15T01:13:32.290Z,3.73
2023-05-15T01:15:59.749Z,3.87
2023-05-15T01:18:33.568Z,3.63
2023-05-15T01:21:10.078Z,3.60
2023-05-15T01:23:58.298Z,3.60
2023-05-15T01:26:44.428Z,3.77
2023-05-15T01:29:17.895Z,3.30
2023-05-15T01:31:50.770Z,3.30
2023-05-15T01:34:19.750Z,3.80
2023-05-15T01:36:48.883Z,3.30
2023-05-15T01:39:19.512Z,3.10
2023-05-15T01:41:55.011Z,3.20
2023-05-15T01:44:33.019Z,3.50
2023-05-15T01:47:05.529Z,3.40
2023-05-15T01:49:33.383Z,3.20
2023-05-15T01:52:04.376Z,3.60
2023-05-15T01:54:32.249Z,2.93
2023-05-15T01:56:59.917Z,3.47
2023-05-15T01:59:27.658Z,3.00
2023-05-15T02:01:57.030Z,2.67
2023-05-15T02:04:26.456Z,2.80
2023-05-15T02:06:54.491Z,3.10
2023-05-15T02:09:21.967Z,3.07
2023-05-15T02:11:49.684Z,3.00
2023-05-15T02:14:17.642Z,3.00
2023-05-15T02:16:45.151Z,2.80
2023-05-15T02:19:12.689Z,2.87
2023-05-15T02:21:41.293Z,2.60
2023-05-15T02:24:08.662Z,2.93
2023-05-15T02:26:54.863Z,2.70
2023-05-15T02:29:41.170Z,2.90
2023-05-15T02:32:22.083Z,2.37
2023-05-15T02:35:22.419Z,2.63
2023-05-15T02:37:51.883Z,2.80
2023-05-15T02:40:20.248Z,2.60
2023-05-15T02:42:48.023Z,2.77
2023-05-15T02:45:15.652Z,2.33
2023-05-15T02:47:43.439Z,2.13
2023-05-15T02:50:11.017Z,2.30
2023-05-15T02:52:38.643Z,2.17
2023-05-15T02:55:06.459Z,2.30
2023-05-15T02:57:34.228Z,2.43
2023-05-15T03:00:01.606Z,2.37
2023-05-15T03:02:30.831Z,2.50
2023-05-15T03:04:58.103Z,2.23
2023-05-15T03:07:25.833Z,2.67
2023-05-15T03:09:53.231Z,2.13
2023-05-15T03:12:20.576Z,2.30
2023-05-15T03:14:48.066Z,2.57
2023-05-15T03:17:16.009Z,2.53
2023-05-15T03:19:43.489Z,2.43
2023-05-15T03:22:10.996Z,2.37
2023-05-15T03:24:38.852Z,2.30
2023-05-15T03:27:06.545Z,2.73
2023-05-15T03:29:34.127Z,2.77
2023-05-15T03:32:01.470Z,2.33
2023-05-15T03:34:28.803Z,2.43
2023-05-15T03:36:56.806Z,2.70
2023-05-15T03:39:24.245Z,3.57
2023-05-15T03:41:51.622Z,2.87
2023-05-15T03:44:18.966Z,2.90
2023-05-15T03:46:47.747Z,3.23
2023-05-15T03:49:15.454Z,3.63
2023-05-15T03:51:43.056Z,3.17
2023-05-15T03:54:10.643Z,2.97
2023-05-15T03:56:38.008Z,3.23
2023-05-15T03:59:05.336Z,3.73
2023-05-15T04:01:34.556Z,3.93
2023-05-15T04:04:06.793Z,3.50
2023-05-15T04:06:34.185Z,3.57
2023-05-15T04:09:01.551Z,3.57
2023-05-15T04:11:28.980Z,3.63
2023-05-15T04:13:56.374Z,4.17
2023-05-15T04:16:23.747Z,3.57
2023-05-15T04:18:51.116Z,3.70
2023-05-15T04:21:18.779Z,3.60
2023-05-15T04:23:46.177Z,4.60
2023-05-15T04:26:13.501Z,3.50
2023-05-15T04:28:46.681Z,3.77
2023-05-15T04:31:20.178Z,3.90
2023-05-15T04:33:49.174Z,4.30
2023-05-15T04:36:17.416Z,4.70
2023-05-15T04:38:44.808Z,4.27
2023-05-15T04:41:12.200Z,4.33
2023-05-15T04:43:41.199Z,4.33
2023-05-15T04:46:08.909Z,4.33
2023-05-15T04:48:36.440Z,4.27
2023-05-15T04:51:03.758Z,4.20
2023-05-15T04:53:31.094Z,3.90
2023-05-15T04:55:58.617Z,4.00
2023-05-15T04:58:25.938Z,3.97
2023-05-15T05:00:53.735Z,3.93
2023-05-15T05:03:21.092Z,3.70
2023-05-15T05:05:48.529Z,3.90
2023-05-15T05:08:16.011Z,3.60
2023-05-15T05:10:43.628Z,3.87
2023-05-15T05:13:11.011Z,3.73
2023-05-15T05:15:38.468Z,3.77
2023-05-15T05:18:06.191Z,4.33
2023-05-15T05:20:33.816Z,3.77
2023-05-15T05:23:01.200Z,4.10
2023-05-15T05:25:28.595Z,3.50
2023-05-15T05:27:55.939Z,3.97
2023-05-15T05:30:23.327Z,3.60
2023-05-15T05:32:50.976Z,3.40
2023-05-15T05:35:18.339Z,3.30
2023-05-15T05:37:45.745Z,3.87
2023-05-15T05:40:13.644Z,3.83
2023-05-15T05:42:40.977Z,3.30
2023-05-15T05:45:08.497Z,3.57
2023-05-15T05:47:35.886Z,3.73
2023-05-15T05:50:03.322Z,4.47
2023-05-15T05:52:31.169Z,3.53
2023-05-15T05:54:58.625Z,3.87
2023-05-15T05:57:26.019Z,3.73
2023-05-15T05:59:54.185Z,4.13
2023-05-15T06:02:21.660Z,3.80
2023-05-15T06:04:49.016Z,4.80
2023-05-15T06:07:16.438Z,3.53
2023-05-15T06:09:45.858Z,3.77
2023-05-15T06:12:13.376Z,4.27
2023-05-15T06:14:40.771Z,3.90
2023-05-15T06:17:08.334Z,4.30
2023-05-15T06:19:36.078Z,4.00
2023-05-15T06:22:03.520Z,4.17
2023-05-15T06:24:30.897Z,4.40
2023-05-15T06:26:58.482Z,4.20
2023-05-15T06:29:25.934Z,4.17
2023-05-15T06:31:53.583Z,5.10
2023-05-15T06:34:20.907Z,3.80
2023-05-15T06:36:48.332Z,4.87
2023-05-15T06:39:15.753Z,4.87
2023-05-15T06:41:43.242Z,4.57
2023-05-15T06:44:13.351Z,4.53
2023-05-15T06:46:40.890Z,4.33
2023-05-15T06:49:08.348Z,4.23
2023-05-15T06:51:35.897Z,4.97
2023-05-15T06:54:03.396Z,4.73
2023-05-15T06:56:30.861Z,4.63
2023-05-15T06:58:58.303Z,4.80
2023-05-15T07:01:25.715Z,4.67
2023-05-15T07:03:55.773Z,5.23
2023-05-15T07:06:23.214Z,4.40
2023-05-15T07:08:50.775Z,5.03
2023-05-15T07:11:19.344Z,4.70
2023-05-15T07:13:46.902Z,4.33
2023-05-15T07:16:14.251Z,5.17
2023-05-15T07:18:41.665Z,5.30
2023-05-15T07:21:09.100Z,5.13
2023-05-15T07:23:36.453Z,4.83
2023-05-15T07:26:03.895Z,4.13
2023-05-15T07:28:31.335Z,4.83
2023-05-15T07:30:59.943Z,4.40
2023-05-15T07:33:29.018Z,4.70
2023-05-15T07:35:56.398Z,5.23
2023-05-15T07:38:24.118Z,5.03
2023-05-15T07:40:51.922Z,5.60
2023-05-15T07:43:19.293Z,5.27
2023-05-15T07:45:46.772Z,5.30
2023-05-15T07:48:15.220Z,4.87
2023-05-15T07:50:42.946Z,5.30
2023-05-15T07:53:11.127Z,5.60
2023-05-15T07:55:38.516Z,5.43
2023-05-15T07:58:06.424Z,5.67
2023-05-15T08:00:33.760Z,5.80
2023-05-15T08:03:01.327Z,5.20
2023-05-15T08:05:29.669Z,5.40
2023-05-15T08:07:57.873Z,5.20
2023-05-15T08:10:25.291Z,5.57
2023-05-15T08:12:52.762Z,6.00
2023-05-15T08:15:20.166Z,6.17
2023-05-15T08:17:47.634Z,5.47
2023-05-15T08:20:15.191Z,6.03
2023-05-15T08:22:42.568Z,5.07
2023-05-15T08:25:10.119Z,6.00
2023-05-15T08:27:37.555Z,5.73
2023-05-15T08:30:05.209Z,5.40
2023-05-15T08:32:33.265Z,6.30
2023-05-15T08:35:00.657Z,5.40
2023-05-15T08:37:28.619Z,5.63
2023-05-15T08:39:56.013Z,5.77
2023-05-15T08:42:33.999Z,6.40
2023-05-15T08:45:01.721Z,6.10
2023-05-15T08:47:32.425Z,5.17
2023-05-15T08:50:00.956Z,6.23
2023-05-15T08:52:28.642Z,6.80
2023-05-15T08:54:56.341Z,5.30
2023-05-15T08:57:24.052Z,5.43
2023-05-15T08:59:52.048Z,6.27
2023-05-15T09:02:20.008Z,6.00
2023-05-15T09:04:47.435Z,6.03
2023-05-15T09:07:16.105Z,6.33
2023-05-15T09:09:45.267Z,6.37
2023-05-15T09:12:15.129Z,5.83
2023-05-15T09:14:43.120Z,6.07
2023-05-15T09:17:11.640Z,5.63
2023-05-15T09:19:42.417Z,6.10
2023-05-15T09:22:23.114Z,5.57
2023-05-15T09:24:53.192Z,6.37
2023-05-15T09:27:21.260Z,5.80
2023-05-15T09:29:51.590Z,5.30
2023-05-15T09:32:19.454Z,5.30
2023-05-15T09:34:47.064Z,5.93
2023-05-15T09:37:33.843Z,5.87
2023-05-15T09:40:09.222Z,7.00
2023-05-15T09:42:36.763Z,5.53
2023-05-15T09:45:04.426Z,5.57
2023-05-15T09:47:33.166Z,6.33
2023-05-15T09:50:00.556Z,5.80
2023-05-15T09:52:30.326Z,4.90
2023-05-15T09:54:58.189Z,5.43
2023-05-15T09:57:25.719Z,5.13
2023-05-15T09:59:53.093Z,5.73
2023-05-15T10:02:32.158Z,5.53
2023-05-15T10:05:00.255Z,5.90
2023-05-15T10:07:28.416Z,5.93
2023-05-15T10:09:55.997Z,5.57
2023-05-15T10:12:25.055Z,5.87
2023-05-15T10:14:53.037Z,5.80
2023-05-15T10:17:21.516Z,5.43
2023-05-15T10:22:24.629Z,4.20
2023-05-15T10:25:01.221Z,5.30
2023-05-15T10:27:28.694Z,4.93
2023-05-15T10:29:57.382Z,4.67
2023-05-15T10:32:25.772Z,5.27
2023-05-15T10:34:53.603Z,4.80
2023-05-15T10:37:21.627Z,4.60
2023-05-15T10:39:49.186Z,4.37
2023-05-15T10:42:17.389Z,4.23
2023-05-15T10:44:44.735Z,3.73
2023-05-15T10:47:12.181Z,3.90
2023-05-15T10:49:39.660Z,3.97
2023-05-15T10:52:07.191Z,4.53
2023-05-15T10:54:34.942Z,4.40
2023-05-15T10:57:02.390Z,3.77
2023-05-15T10:59:33.349Z,3.77
2023-05-15T11:02:20.121Z,3.60
2023-05-15T11:04:47.901Z,4.03
2023-05-15T11:07:16.696Z,3.50
2023-05-15T11:09:44.298Z,3.70
2023-05-15T11:12:12.100Z,3.80
2023-05-15T11:14:41.242Z,4.33
2023-05-15T11:17:12.781Z,5.20
2023-05-15T11:19:55.546Z,4.57
2023-05-15T11:22:40.046Z,4.80
2023-05-15T11:25:14.504Z,3.93
2023-05-15T11:27:43.463Z,4.97
2023-05-15T11:30:20.460Z,4.47
2023-05-15T11:32:47.886Z,4.20
2023-05-15T11:35:15.393Z,4.53
2023-05-15T11:37:43.979Z,4.47
2023-05-15T11:40:15.492Z,3.73
2023-05-15T11:42:59.598Z,3.17
2023-05-15T11:45:28.322Z,4.07
2023-05-15T11:47:55.951Z,2.90
2023-05-15T11:50:24.123Z,3.90
2023-05-15T11:52:51.817Z,3.07
2023-05-15T11:55:19.868Z,3.10
2023-05-15T11:57:47.679Z,3.27
2023-05-15T12:00:15.969Z,3.50
2023-05-15T12:02:45.972Z,3.13
2023-05-15T12:05:13.481Z,3.10
2023-05-15T12:07:42.520Z,2.90
2023-05-15T12:10:13.667Z,2.37
2023-05-15T12:12:42.225Z,2.53
2023-05-15T12:15:13.693Z,2.60
2023-05-15T12:17:41.399Z,2.27
2023-05-15T12:20:10.721Z,2.57
2023-05-15T12:22:42.654Z,2.77
2023-05-15T12:25:11.497Z,2.83
2023-05-15T12:27:40.101Z,2.60
2023-05-15T12:30:08.109Z,2.20
2023-05-15T12:32:36.429Z,2.60
2023-05-15T12:35:05.112Z,2.27
2023-05-15T12:37:35.759Z,2.17
2023-05-15T12:40:11.915Z,2.43
2023-05-15T12:42:43.585Z,2.17
2023-05-15T12:45:17.814Z,2.10
2023-05-15T12:47:46.428Z,2.20
2023-05-15T12:50:15.897Z,2.17
2023-05-15T12:52:52.960Z,2.17
2023-05-15T12:55:27.678Z,1.97
2023-05-15T12:58:02.149Z,2.00
2023-05-15T13:00:30.142Z,2.10
2023-05-15T13:02:58.481Z,2.20
2023-05-15T13:05:27.154Z,2.03
2023-05-15T13:07:54.552Z,2.03
2023-05-15T13:10:23.363Z,1.70
2023-05-15T13:12:52.212Z,2.10
2023-05-15T13:15:24.614Z,1.60
2023-05-15T13:17:56.599Z,1.60
2023-05-15T13:20:24.584Z,1.90
2023-05-15T13:22:52.205Z,1.77
2023-05-15T13:25:21.025Z,1.80
2023-05-15T13:27:49.396Z,1.87
2023-05-15T13:30:17.170Z,1.57
2023-05-15T13:32:44.876Z,1.50
2023-05-15T13:35:12.359Z,1.80
2023-05-15T13:37:39.728Z,1.53
2023-05-15T13:40:12.472Z,1.70
2023-05-15T13:42:40.946Z,1.50
2023-05-15T13:45:10.284Z,1.70
2023-05-15T13:47:39.571Z,1.70
2023-05-15T13:50:07.733Z,1.80
2023-05-15T13:52:35.152Z,1.40
2023-05-15T13:55:02.863Z,1.53
2023-05-15T13:57:30.353Z,1.70
2023-05-15T13:59:57.868Z,1.53
2023-05-15T14:02:26.660Z,1.57
2023-05-15T14:04:54.586Z,1.60
2023-05-15T14:07:25.087Z,1.70
2023-05-15T14:09:52.761Z,1.67
2023-05-15T14:12:21.183Z,1.50
2023-05-15T14:14:48.872Z,1.70
2023-05-15T14:17:17.085Z,1.57
2023-05-15T14:19:45.324Z,1.93
2023-05-15T14:22:12.776Z,1.43
2023-05-15T14:24:40.090Z,1.60
2023-05-15T14:27:07.411Z,1.80
2023-05-15T14:29:34.978Z,1.40
2023-05-15T14:32:02.422Z,1.63
2023-05-15T14:34:32.984Z,1.50
2023-05-15T14:37:00.444Z,1.60
2023-05-15T14:39:28.080Z,1.60
2023-05-15T14:41:55.459Z,1.63
2023-05-15T14:44:22.859Z,1.67
2023-05-15T14:47:05.664Z,1.50
2023-05-15T14:49:33.145Z,1.60
2023-05-15T14:52:00.532Z,1.60
2023-05-15T14:54:27.894Z,1.67
2023-05-15T14:56:57.331Z,2.17
2023-05-15T14:59:28.632Z,1.70
2023-05-15T15:01:56.235Z,2.10
2023-05-15T15:04:23.622Z,1.40
2023-05-15T15:06:51.070Z,1.60
2023-05-15T15:09:21.231Z,1.40
2023-05-15T15:11:49.244Z,1.63
2023-05-15T15:14:16.599Z,1.40
2023-05-15T15:16:46.029Z,1.60
2023-05-15T15:19:14.069Z,1.60
2023-05-15T15:21:41.676Z,1.40
2023-05-15T15:24:09.363Z,1.60
2023-05-15T15:26:36.677Z,1.70
2023-05-15T15:29:04.090Z,1.43
2023-05-15T15:31:31.934Z,1.70
2023-05-15T15:33:59.724Z,1.40
2023-05-15T15:36:27.336Z,1.60
2023-05-15T15:38:54.953Z,1.80
2023-05-15T15:41:24.152Z,1.50
2023-05-15T15:43:51.517Z,1.47
2023-05-15T15:46:18.981Z,1.50
2023-05-15T15:48:46.527Z,1.40
2023-05-15T15:51:14.117Z,1.50
2023-05-15T15:53:41.447Z,1.50
2023-05-15T15:56:08.888Z,1.50
2023-05-15T15:58:36.391Z,1.43
2023-05-15T16:01:04.076Z,1.57
2023-05-15T16:03:32.080Z,1.27
2023-05-15T16:06:00.401Z,1.47
2023-05-15T16:08:28.172Z,2.00
2023-05-15T16:10:56.348Z,1.40
2023-05-15T16:13:23.662Z,1.50
2023-05-15T16:15:51.017Z,1.60
2023-05-15T16:18:18.437Z,1.40
2023-05-15T16:20:46.360Z,1.67
2023-05-15T16:23:15.571Z,1.40
2023-05-15T16:25:43.911Z,1.40
2023-05-15T16:28:11.654Z,1.43
2023-05-15T16:30:47.905Z,1.53
2023-05-15T16:33:17.496Z,1.60
2023-05-15T16:35:45.692Z,1.93
2023-05-15T16:38:15.800Z,1.50
2023-05-15T16:40:43.164Z,1.47
2023-05-15T16:43:10.763Z,1.30
2023-05-15T16:45:38.123Z,1.50
2023-05-15T16:48:05.790Z,1.40
2023-05-15T16:50:33.878Z,1.50
2023-05-15T16:53:01.464Z,1.43
2023-05-15T16:55:29.178Z,1.20
2023-05-15T16:57:56.591Z,1.77
2023-05-15T17:00:24.177Z,1.47
2023-05-15T17:02:52.005Z,1.23
2023-05-15T17:05:19.641Z,1.40
2023-05-15T17:07:46.955Z,1.57
2023-05-15T17:10:14.430Z,1.20
2023-05-15T17:12:41.927Z,1.57
2023-05-15T17:15:09.500Z,1.33
2023-05-15T17:17:36.960Z,1.60
2023-05-15T17:20:04.745Z,1.80
2023-05-15T17:22:32.258Z,1.40
2023-05-15T17:24:59.748Z,1.90
2023-05-15T17:27:27.312Z,1.50
2023-05-15T17:29:54.759Z,1.60
2023-05-15T17:32:22.594Z,1.33
2023-05-15T17:34:51.386Z,1.40
2023-05-15T17:37:18.877Z,1.37
2023-05-15T17:39:46.202Z,1.30
2023-05-15T17:42:13.575Z,1.63
2023-05-15T17:44:40.976Z,1.50
2023-05-15T17:47:10.165Z,1.57
2023-05-15T17:49:38.168Z,1.60
2023-05-15T17:52:05.837Z,1.33
2023-05-15T17:54:33.323Z,1.43
2023-05-15T17:57:00.772Z,1.40
2023-05-15T17:59:28.495Z,1.60
2023-05-15T18:01:55.902Z,1.37
2023-05-15T18:04:23.436Z,1.70
2023-05-15T18:06:53.325Z,1.30
2023-05-15T18:09:23.207Z,1.40
2023-05-15T18:11:54.465Z,1.23
2023-05-15T18:14:25.877Z,1.50
2023-05-15T18:17:02.368Z,1.30
2023-05-15T18:19:32.396Z,1.57
2023-05-15T18:22:03.836Z,1.27
2023-05-15T18:24:35.081Z,1.60
2023-05-15T18:27:04.061Z,1.70
2023-05-15T18:29:36.712Z,1.60
2023-05-15T18:32:04.384Z,1.50
2023-05-15T18:34:35.163Z,1.53
2023-05-15T18:37:03.077Z,1.50
2023-05-15T18:39:30.999Z,1.43
2023-05-15T18:41:59.900Z,1.40
2023-05-15T18:44:27.210Z,1.60
2023-05-15T18:46:54.611Z,1.60
2023-05-15T18:49:21.944Z,1.40
2023-05-15T18:51:49.480Z,1.40
2023-05-15T18:54:16.846Z,1.33
2023-05-15T18:56:44.303Z,1.40
2023-05-15T18:59:11.787Z,1.43
2023-05-15T19:01:40.536Z,1.40
2023-05-15T19:04:09.074Z,2.07
2023-05-15T19:06:36.392Z,1.40
2023-05-15T19:09:04.192Z,1.43
2023-05-15T19:11:31.553Z,1.80
2023-05-15T19:13:59.165Z,1.40
2023-05-15T19:16:28.649Z,1.77
2023-05-15T19:18:56.346Z,1.50
2023-05-15T19:21:23.860Z,1.50
2023-05-15T19:23:51.245Z,1.87
2023-05-15T19:26:18.745Z,1.83
2023-05-15T19:28:46.282Z,1.77
2023-05-15T19:31:30.199Z,2.13
2023-05-15T19:33:59.174Z,2.30
2023-05-15T19:36:26.536Z,1.70
2023-05-15T19:38:53.928Z,1.57
2023-05-15T19:41:22.297Z,1.60
2023-05-15T19:43:51.095Z,1.63
2023-05-15T19:46:18.838Z,1.73
2023-05-15T19:48:46.338Z,1.40
2023-05-15T19:51:13.754Z,1.67
2023-05-15T19:53:41.545Z,1.60
2023-05-15T19:56:08.877Z,1.40
2023-05-15T19:58:36.253Z,1.83
2023-05-15T20:01:04.281Z,1.43
2023-05-15T20:03:34.567Z,1.30
2023-05-15T20:06:02.540Z,1.90
2023-05-15T20:08:30.213Z,1.70
2023-05-15T20:10:57.906Z,2.57
2023-05-15T20:13:25.291Z,2.00
2023-05-15T20:15:56.950Z,1.60
2023-05-15T20:18:28.714Z,1.30
2023-05-15T20:20:56.286Z,1.50
2023-05-15T20:23:23.791Z,1.70
2023-05-15T20:25:51.718Z,1.60
2023-05-15T20:28:19.237Z,1.47
2023-05-15T20:30:49.672Z,1.80
2023-05-15T20:33:17.221Z,1.40
2023-05-15T20:35:45.379Z,1.60
2023-05-15T20:38:12.910Z,1.30
2023-05-15T20:40:40.215Z,1.60
2023-05-15T20:43:07.649Z,1.33
2023-05-15T20:45:35.106Z,1.20
2023-05-15T20:48:02.757Z,1.20
2023-05-15T20:50:30.160Z,1.20
2023-05-15T20:52:57.636Z,1.30
2023-05-15T20:55:24.996Z,1.50
2023-05-15T20:57:52.389Z,1.10
2023-05-15T21:00:19.757Z,1.30
2023-05-15T21:02:47.200Z,1.37
2023-05-15T21:05:14.658Z,1.43
2023-05-15T21:07:42.146Z,1.40
2023-05-15T21:10:10.053Z,1.10
2023-05-15T21:12:37.485Z,1.40
2023-05-15T21:15:06.147Z,1.20
2023-05-15T21:17:33.522Z,1.30
2023-05-15T21:20:02.114Z,1.30
2023-05-15T21:22:29.521Z,1.20
2023-05-15T21:24:56.881Z,1.23
2023-05-15T21:27:24.354Z,1.30
2023-05-15T21:29:51.695Z,1.40
2023-05-15T21:32:19.246Z,1.10
2023-05-15T21:34:47.123Z,1.33
2023-05-15T21:37:14.569Z,1.40
2023-05-15T21:39:42.036Z,1.37
2023-05-15T21:42:10.044Z,1.50
2023-05-15T21:44:37.567Z,1.50
2023-05-15T21:47:05.116Z,1.20
2023-05-15T21:49:32.500Z,1.67
2023-05-15T21:51:59.864Z,1.30
2023-05-15T21:54:27.237Z,1.20
2023-05-15T21:56:54.652Z,1.13
2023-05-15T21:59:22.037Z,1.17
2023-05-15T22:01:49.437Z,1.27
2023-05-15T22:04:17.008Z,1.20
2023-05-15T22:06:44.439Z,1.20
2023-05-15T22:09:12.002Z,1.10
2023-05-15T22:11:39.423Z,1.30
2023-05-15T22:14:09.375Z,1.27
2023-05-15T22:16:36.910Z,1.20
2023-05-15T22:19:04.362Z,1.40
2023-05-15T22:21:32.263Z,1.20
2023-05-15T22:23:59.665Z,1.00
2023-05-15T22:26:26.994Z,1.40
2023-05-15T22:28:56.166Z,1.27
2023-05-15T22:31:23.817Z,1.00
2023-05-15T22:33:51.289Z,1.47
2023-05-15T22:36:18.796Z,1.47
2023-05-15T22:38:46.439Z,1.30
2023-05-15T22:41:13.798Z,1.10
2023-05-15T22:43:41.138Z,1.20
2023-05-15T22:46:08.788Z,1.40
2023-05-15T22:48:37.113Z,1.43
2023-05-15T22:51:05.332Z,1.23
2023-05-15T22:53:33.327Z,1.20
2023-05-15T22:56:00.674Z,0.90
2023-05-15T22:58:28.061Z,1.30
2023-05-15T23:00:55.418Z,1.00
2023-05-15T23:03:23.124Z,1.10
2023-05-15T23:05:53.329Z,1.03
2023-05-15T23:08:20.806Z,1.10
2023-05-15T23:10:48.190Z,1.00
2023-05-15T23:13:15.513Z,1.23
2023-05-15T23:15:44.469Z,0.90
2023-05-15T23:18:12.255Z,1.63
2023-05-15T23:20:39.638Z,1.00
2023-05-15T23:23:07.113Z,1.10
2023-05-15T23:25:34.547Z,1.17
2023-05-15T23:28:02.035Z,1.20
2023-05-15T23:30:29.404Z,1.10
2023-05-15T23:32:57.163Z,1.07
2023-05-15T23:35:24.754Z,1.40
2023-05-15T23:37:52.091Z,1.50
2023-05-15T23:40:19.486Z,0.80
2023-05-15T23:42:46.861Z,1.07
2023-05-15T23:45:14.227Z,1.20
2023-05-15T23:47:42.090Z,1.17
2023-05-15T23:50:09.519Z,1.30
2023-05-15T23:52:37.005Z,1.23
2023-05-15T23:55:04.761Z,1.23
2023-05-15T23:57:32.136Z,1.17
2023-05-15T23:59:59.601Z,1.10
